Time;durP1;ratioP1;P1;durP2;ratioP2;P2;SDS_P1;SDS_P2;PMS_P1;PMS_P2;Temp;Humidity;BMP_temperature;BMP_pressure;BME280_temperature;BME280_humidity;BME280_pressure;Samples;Min_cycle;Max_cycle;Signal;HPM_P1;HPM_P2
2023/10/30 00:02:24;;;;;;;;;;;;;;;11.32;92.70;99108.83;130513;1295;22546;-78
2023/10/30 00:05:24;;;;;;;;;;;;;;;11.19;92.45;99120.56;130503;1297;25242;-79
2023/10/30 00:08:26;;;;;;;;;;;;;;;11.10;92.73;99121.48;130730;1298;24291;-78
2023/10/30 00:11:27;;;;;;;;;;;;;;;11.06;92.86;99122.64;132639;1294;22533;-79
2023/10/30 00:14:27;;;;;;;;;;;;;;;10.99;92.58;99123.62;130580;1290;24293;-80
2023/10/30 00:17:28;;;;;;;;;;;;;;;10.92;92.68;99132.30;130585;1292;25376;-79
2023/10/30 00:20:28;;;;;;;;;;;;;;;10.81;92.41;99128.48;130830;1288;22650;-79
2023/10/30 00:23:29;;;;;;;;;;;;;;;10.72;92.67;99130.64;130570;1295;26426;-79
2023/10/30 00:26:29;;;;;;;;;;;;;;;10.68;92.71;99141.09;130633;1294;22531;-79
2023/10/30 00:29:30;;;;;;;;;;;;;;;10.63;92.77;99130.86;131395;1298;24260;-78
2023/10/30 00:32:30;;;;;;;;;;;;;;;10.53;92.58;99134.47;131460;1288;22659;-79
2023/10/30 00:35:31;;;;;;;;;;;;;;;10.45;92.83;99162.15;131714;1299;22646;-78
2023/10/30 00:38:31;;;;;;;;;;;;;;;10.40;92.96;99164.02;131571;1290;26336;-79
2023/10/30 00:41:32;;;;;;;;;;;;;;;10.34;92.91;99159.92;131589;1297;23214;-79
2023/10/30 00:44:32;;;;;;;;;;;;;;;10.27;93.07;99160.91;131482;1288;22586;-79
2023/10/30 00:47:34;;;;;;;;;;;;;;;10.18;93.21;99165.71;130562;1298;22657;-79
2023/10/30 00:50:35;;;;;;;;;;;;;;;10.10;93.20;99155.39;130552;1298;23530;-79
2023/10/30 00:53:36;;;;;;;;;;;;;;;10.06;93.53;99149.05;130670;1290;22548;-78
2023/10/30 00:56:36;;;;;;;;;;;;;;;10.04;94.13;99133.09;130599;1298;22572;-79
2023/10/30 00:59:37;;;;;;;;;;;;;;;9.98;93.72;99135.73;130592;1294;24612;-78
2023/10/30 01:02:39;;;;;;;;;;;;;;;9.95;94.42;99146.48;130643;1289;23512;-78
2023/10/30 01:05:39;;;;;;;;;;;;;;;9.96;94.64;99143.98;130687;1289;23363;-79
2023/10/30 01:08:40;;;;;;;;;;;;;;;9.98;94.60;99148.73;130499;1289;22545;-79
2023/10/30 01:11:40;;;;;;;;;;;;;;;10.02;94.97;99152.91;130476;1298;22656;-80
2023/10/30 01:14:41;;;;;;;;;;;;;;;10.03;95.19;99134.52;130542;1289;22560;-80
2023/10/30 01:17:42;;;;;;;;;;;;;;;10.03;95.34;99133.50;131466;1294;22652;-80
2023/10/30 01:20:43;;;;;;;;;;;;;;;10.05;96.03;99129.29;131473;1294;25532;-79
2023/10/30 01:23:43;;;;;;;;;;;;;;;10.07;96.11;99130.85;131581;1298;23086;-80
2023/10/30 01:26:44;;;;;;;;;;;;;;;10.09;96.08;99132.25;131568;1297;22589;-80
2023/10/30 01:29:44;;;;;;;;;;;;;;;10.04;96.09;99127.71;131606;1297;23712;-80
2023/10/30 01:32:44;;;;;;;;;;;;;;;10.02;96.26;99130.79;131316;1289;22532;-80
2023/10/30 01:35:45;;;;;;;;;;;;;;;10.05;96.25;99132.38;131636;1295;25259;-80
2023/10/30 01:38:45;;;;;;;;;;;;;;;10.08;96.43;99130.87;131699;1298;22681;-79
2023/10/30 01:41:46;;;;;;;;;;;;;;;10.13;97.00;99131.63;131754;1298;24224;-79
2023/10/30 01:44:53;;;;;;;;;;;;;;;10.17;96.85;99126.87;131445;1288;22530;-79
2023/10/30 01:47:56;;;;;;;;;;;;;;;10.19;96.74;99111.56;133386;1298;22771;-79
2023/10/30 01:50:57;;;;;;;;;;;;;;;10.21;96.81;99107.62;131537;1289;24413;-80
2023/10/30 01:53:58;;;;;;;;;;;;;;;10.23;96.82;99104.21;131274;1297;22653;-78
2023/10/30 01:56:58;;;;;;;;;;;;;;;10.25;97.02;99102.01;130753;1295;23487;-78
2023/10/30 02:00:00;;;;;;;;;;;;;;;10.26;96.98;99103.27;134185;1296;22486;-79
2023/10/30 02:03:02;;;;;;;;;;;;;;;10.26;96.83;99104.73;134082;1297;22455;-79
2023/10/30 02:06:02;;;;;;;;;;;;;;;10.24;96.89;99102.15;134204;1298;23172;-79
2023/10/30 02:09:03;;;;;;;;;;;;;;;10.22;96.91;99105.05;131387;1298;22567;-80
2023/10/30 02:12:03;;;;;;;;;;;;;;;10.23;97.00;99102.14;130506;1288;24521;-78
2023/10/30 02:15:04;;;;;;;;;;;;;;;10.22;96.91;99094.56;130430;1289;24515;-78
2023/10/30 02:18:05;;;;;;;;;;;;;;;10.23;96.90;99086.56;130443;1285;25297;-78
2023/10/30 02:21:06;;;;;;;;;;;;;;;10.21;97.10;99083.60;130607;1297;25291;-78
2023/10/30 02:24:07;;;;;;;;;;;;;;;10.21;97.43;99087.07;130618;1288;22545;-81
2023/10/30 02:27:09;;;;;;;;;;;;;;;10.23;97.78;99099.25;131349;1294;24390;-80
2023/10/30 02:30:13;;;;;;;;;;;;;;;10.23;97.98;99106.23;131585;1297;22560;-79
2023/10/30 02:33:13;;;;;;;;;;;;;;;10.25;97.84;99106.97;131602;1298;23189;-78
2023/10/30 02:36:14;;;;;;;;;;;;;;;10.26;98.00;99117.42;130865;1298;25431;-79
2023/10/30 02:39:14;;;;;;;;;;;;;;;10.27;97.95;99118.75;130892;1294;24319;-78
2023/10/30 02:42:14;;;;;;;;;;;;;;;10.28;97.88;99116.83;130780;1292;25281;-78
2023/10/30 02:45:15;;;;;;;;;;;;;;;10.30;97.97;99126.02;130917;1298;22541;-79
2023/10/30 02:48:15;;;;;;;;;;;;;;;10.29;97.81;99118.30;130597;1297;22529;-78
2023/10/30 02:51:18;;;;;;;;;;;;;;;10.25;97.70;99118.41;131257;1288;22884;-79
2023/10/30 02:54:19;;;;;;;;;;;;;;;10.23;97.76;99135.98;130785;1298;22787;-80
2023/10/30 02:57:20;;;;;;;;;;;;;;;10.20;97.76;99142.89;131442;1294;24300;-79
2023/10/30 03:00:20;;;;;;;;;;;;;;;10.17;97.63;99139.55;130553;1288;24296;-78
2023/10/30 03:03:21;;;;;;;;;;;;;;;10.16;98.15;99143.98;130827;1289;25523;-79
2023/10/30 03:06:22;;;;;;;;;;;;;;;10.11;98.05;99139.95;130673;1294;22546;-78
2023/10/30 03:09:22;;;;;;;;;;;;;;;10.06;98.30;99143.89;130766;1288;22527;-78
2023/10/30 03:12:22;;;;;;;;;;;;;;;10.01;98.05;99144.33;130492;1292;24238;-80
2023/10/30 03:15:23;;;;;;;;;;;;;;;9.99;98.32;99141.11;131402;1297;25250;-80
2023/10/30 03:18:23;;;;;;;;;;;;;;;9.96;98.27;99140.83;131191;1298;22768;-81
2023/10/30 03:21:24;;;;;;;;;;;;;;;9.98;98.58;99143.34;131408;1291;22570;-81
2023/10/30 03:24:25;;;;;;;;;;;;;;;9.99;98.64;99150.60;130766;1292;22550;-80
2023/10/30 03:27:25;;;;;;;;;;;;;;;10.00;98.53;99160.21;131425;1294;22546;-78
2023/10/30 03:30:26;;;;;;;;;;;;;;;10.01;98.53;99169.64;130629;1291;23324;-78
2023/10/30 03:33:27;;;;;;;;;;;;;;;10.01;98.48;99151.98;131105;1286;22655;-79
2023/10/30 03:36:29;;;;;;;;;;;;;;;10.02;98.79;99154.27;130830;1291;22543;-79
2023/10/30 03:39:29;;;;;;;;;;;;;;;10.04;98.91;99155.98;131416;1289;23006;-79
2023/10/30 03:42:30;;;;;;;;;;;;;;;10.05;98.78;99156.05;130888;1288;22694;-78
2023/10/30 03:45:30;;;;;;;;;;;;;;;10.05;98.79;99160.66;130953;1297;22556;-80
2023/10/30 03:48:30;;;;;;;;;;;;;;;10.05;98.73;99162.59;131555;1298;25400;-80
2023/10/30 03:51:31;;;;;;;;;;;;;;;10.06;98.59;99164.52;131592;1297;22531;-78
2023/10/30 03:54:31;;;;;;;;;;;;;;;10.07;98.45;99169.52;130992;1297;22586;-79
2023/10/30 03:57:32;;;;;;;;;;;;;;;10.07;98.35;99166.70;130932;1288;22565;-80
2023/10/30 04:00:32;;;;;;;;;;;;;;;10.08;98.42;99164.18;131140;1288;22561;-80
2023/10/30 04:03:33;;;;;;;;;;;;;;;10.10;98.37;99164.56;131181;1288;22558;-80
2023/10/30 04:06:36;;;;;;;;;;;;;;;10.12;98.37;99166.45;131276;1288;23890;-80
2023/10/30 04:09:36;;;;;;;;;;;;;;;10.14;98.28;99167.70;131244;1295;22567;-79
2023/10/30 04:12:38;;;;;;;;;;;;;;;10.15;98.37;99164.17;131304;1288;22881;-80
2023/10/30 04:15:38;;;;;;;;;;;;;;;10.19;98.33;99153.69;131608;1298;22554;-80
2023/10/30 04:18:39;;;;;;;;;;;;;;;10.24;98.25;99154.27;131597;1294;24919;-80
2023/10/30 04:21:39;;;;;;;;;;;;;;;10.27;98.18;99162.01;131694;1293;23968;-79
2023/10/30 04:24:40;;;;;;;;;;;;;;;10.29;97.91;99172.79;131561;1282;23368;-79
2023/10/30 04:27:40;;;;;;;;;;;;;;;10.26;97.99;99179.30;131472;1288;22787;-79
2023/10/30 04:30:40;;;;;;;;;;;;;;;10.22;97.71;99194.83;131553;1288;23320;-79
2023/10/30 04:33:41;;;;;;;;;;;;;;;10.18;97.67;99200.78;131804;1285;22552;-80
2023/10/30 04:36:41;;;;;;;;;;;;;;;10.12;97.56;99191.41;131779;1289;22601;-79
2023/10/30 04:39:41;;;;;;;;;;;;;;;10.07;97.50;99200.00;131539;1293;24161;-80
2023/10/30 04:42:42;;;;;;;;;;;;;;;10.04;97.53;99206.89;131573;1288;22542;-80
2023/10/30 04:45:42;;;;;;;;;;;;;;;10.00;97.65;99212.30;131718;1288;22559;-80
2023/10/30 04:48:43;;;;;;;;;;;;;;;9.97;97.48;99207.02;131727;1292;23130;-80
2023/10/30 04:51:43;;;;;;;;;;;;;;;9.93;97.97;99212.14;131722;1288;22587;-80
2023/10/30 04:54:44;;;;;;;;;;;;;;;9.93;97.97;99215.84;131752;1293;22608;-80
2023/10/30 04:57:44;;;;;;;;;;;;;;;9.91;97.88;99219.20;131796;1288;27748;-80
2023/10/30 05:00:45;;;;;;;;;;;;;;;9.90;97.96;99223.06;131709;1294;22543;-80
2023/10/30 05:03:45;;;;;;;;;;;;;;;9.91;98.23;99218.27;131607;1285;22740;-80
2023/10/30 05:06:48;;;;;;;;;;;;;;;9.88;97.89;99218.48;131500;1288;22761;-80
2023/10/30 05:09:48;;;;;;;;;;;;;;;9.84;98.05;99215.77;131544;1288;22611;-80
2023/10/30 05:12:49;;;;;;;;;;;;;;;9.81;97.93;99216.55;131340;1291;22764;-80
2023/10/30 05:15:49;;;;;;;;;;;;;;;9.75;98.19;99223.57;131336;1291;22749;-80
2023/10/30 05:18:50;;;;;;;;;;;;;;;9.74;98.17;99216.50;131415;1297;26256;-80
2023/10/30 05:21:50;;;;;;;;;;;;;;;9.72;98.06;99225.70;131439;1290;22555;-80
2023/10/30 05:24:50;;;;;;;;;;;;;;;9.68;98.11;99222.70;131608;1297;22528;-80
2023/10/30 05:27:51;;;;;;;;;;;;;;;9.59;97.65;99223.63;132062;1290;23513;-80
2023/10/30 05:30:51;;;;;;;;;;;;;;;9.54;97.95;99219.03;132030;1291;22545;-78
2023/10/30 05:33:51;;;;;;;;;;;;;;;9.52;98.01;99213.77;131364;1297;25332;-81
2023/10/30 05:36:52;;;;;;;;;;;;;;;9.50;98.08;99210.02;131590;1296;22530;-82
2023/10/30 05:39:52;;;;;;;;;;;;;;;9.49;98.14;99212.20;131491;1297;22548;-82
2023/10/30 05:42:53;;;;;;;;;;;;;;;9.47;97.97;99217.99;131264;1297;176009;-83
2023/10/30 05:45:53;;;;;;;;;;;;;;;9.42;97.75;99224.48;131460;1297;22560;-81
2023/10/30 05:48:53;;;;;;;;;;;;;;;9.37;97.65;99228.58;131503;1290;25267;-81
2023/10/30 05:51:54;;;;;;;;;;;;;;;9.34;97.62;99236.10;131641;1292;22677;-81
2023/10/30 05:54:55;;;;;;;;;;;;;;;9.27;97.72;99235.13;131510;1289;23477;-79
2023/10/30 05:57:56;;;;;;;;;;;;;;;9.20;97.71;99235.55;131350;1297;22595;-81
2023/10/30 06:00:57;;;;;;;;;;;;;;;9.18;98.12;99246.92;131140;1291;25383;-79
2023/10/30 06:03:57;;;;;;;;;;;;;;;9.17;98.29;99247.92;131150;1290;25354;-79
2023/10/30 06:06:58;;;;;;;;;;;;;;;9.17;98.56;99239.57;131437;1288;22654;-80
2023/10/30 06:09:58;;;;;;;;;;;;;;;9.16;98.77;99222.27;131387;1288;26509;-80
2023/10/30 06:12:59;;;;;;;;;;;;;;;9.15;99.05;99220.77;131446;1288;22961;-80
2023/10/30 06:15:59;;;;;;;;;;;;;;;9.19;99.46;99227.56;131563;1291;22542;-81
2023/10/30 06:19:00;;;;;;;;;;;;;;;9.25;99.67;99236.92;131716;1294;25358;-80
2023/10/30 06:22:01;;;;;;;;;;;;;;;9.33;99.68;99252.57;131769;1289;25262;-80
2023/10/30 06:25:01;;;;;;;;;;;;;;;9.45;99.73;99261.23;131363;1291;23319;-80
2023/10/30 06:28:02;;;;;;;;;;;;;;;9.60;99.86;99260.20;131714;1288;25329;-81
2023/10/30 06:31:03;;;;;;;;;;;;;;;9.81;100.00;99276.06;131464;1297;22815;-80
2023/10/30 06:34:04;;;;;;;;;;;;;;;10.10;100.00;99286.54;131464;1291;23368;-80
2023/10/30 06:37:05;;;;;;;;;;;;;;;10.48;100.00;99288.55;131488;1294;22574;-80
2023/10/30 06:40:07;;;;;;;;;;;;;;;10.83;100.00;99287.42;131621;1297;22586;-79
2023/10/30 06:43:07;;;;;;;;;;;;;;;11.13;100.00;99291.47;131496;1298;23945;-81
2023/10/30 06:46:08;;;;;;;;;;;;;;;11.41;100.00;99297.66;131509;1297;25519;-80
2023/10/30 06:49:09;;;;;;;;;;;;;;;11.62;99.96;99297.29;131375;1294;22540;-79
2023/10/30 06:52:10;;;;;;;;;;;;;;;11.76;99.43;99275.52;131392;1289;22666;-80
2023/10/30 06:55:11;;;;;;;;;;;;;;;11.76;98.71;99264.04;131415;1288;23016;-81
2023/10/30 06:58:11;;;;;;;;;;;;;;;11.83;98.81;99269.11;132029;1291;22587;-79
2023/10/30 07:01:12;;;;;;;;;;;;;;;11.94;98.83;99279.83;131619;1282;24434;-80
2023/10/30 07:04:13;;;;;;;;;;;;;;;12.07;98.60;99290.00;131321;1288;22640;-80
2023/10/30 07:07:14;;;;;;;;;;;;;;;12.20;98.36;99296.66;131689;1290;22583;-80
2023/10/30 07:10:14;;;;;;;;;;;;;;;12.31;97.95;99301.83;132052;1288;23630;-80
2023/10/30 07:13:14;;;;;;;;;;;;;;;12.38;97.61;99304.89;131619;1289;22628;-80
2023/10/30 07:16:17;;;;;;;;;;;;;;;12.44;97.55;99300.29;131572;1291;24273;-79
2023/10/30 07:19:22;;;;;;;;;;;;;;;12.57;97.84;99296.15;131769;1291;22575;-79
2023/10/30 07:22:22;;;;;;;;;;;;;;;12.70;97.21;99297.30;131576;1291;24369;-80
2023/10/30 07:25:23;;;;;;;;;;;;;;;12.76;96.23;99302.86;131892;1285;22534;-81
2023/10/30 07:28:23;;;;;;;;;;;;;;;12.84;95.98;99314.10;131404;1290;25392;-80
2023/10/30 07:31:24;;;;;;;;;;;;;;;12.93;95.56;99312.07;131343;1298;22533;-81
2023/10/30 07:34:24;;;;;;;;;;;;;;;12.99;94.77;99297.73;131404;1282;24318;-80
2023/10/30 07:37:25;;;;;;;;;;;;;;;13.01;93.50;99287.38;131497;1291;24283;-80
2023/10/30 07:40:26;;;;;;;;;;;;;;;13.04;93.90;99277.80;131452;1294;22547;-81
2023/10/30 07:43:26;;;;;;;;;;;;;;;13.13;94.14;99277.97;131415;1294;23284;-80
2023/10/30 07:46:26;;;;;;;;;;;;;;;13.20;93.29;99284.33;131262;1289;22667;-81
2023/10/30 07:49:27;;;;;;;;;;;;;;;13.23;92.30;99290.61;131227;1281;25126;-80
2023/10/30 07:52:28;;;;;;;;;;;;;;;13.26;91.10;99297.09;131228;1292;22536;-80
2023/10/30 07:55:28;;;;;;;;;;;;;;;13.26;90.66;99299.05;131216;1294;22530;-80
2023/10/30 07:58:29;;;;;;;;;;;;;;;13.27;90.67;99300.46;131155;1297;22541;-81
2023/10/30 08:01:30;;;;;;;;;;;;;;;13.30;90.55;99308.63;131215;1289;22540;-80
2023/10/30 08:04:30;;;;;;;;;;;;;;;13.35;90.21;99318.27;131220;1291;23402;-80
2023/10/30 08:07:30;;;;;;;;;;;;;;;13.39;90.33;99326.14;131219;1290;23468;-80
2023/10/30 08:10:31;;;;;;;;;;;;;;;13.46;90.40;99327.05;131229;1291;22540;-80
2023/10/30 08:13:32;;;;;;;;;;;;;;;13.55;90.54;99328.88;131466;1296;26490;-81
2023/10/30 08:16:34;;;;;;;;;;;;;;;13.65;90.43;99331.31;131392;1297;22688;-80
2023/10/30 08:19:35;;;;;;;;;;;;;;;13.74;90.09;99328.14;131300;1294;22639;-80
2023/10/30 08:22:36;;;;;;;;;;;;;;;13.83;90.13;99323.75;131503;1297;22537;-80
2023/10/30 08:25:36;;;;;;;;;;;;;;;13.93;89.99;99326.11;131443;1288;22547;-81
2023/10/30 08:28:36;;;;;;;;;;;;;;;14.05;90.10;99331.95;131399;1288;22707;-80
2023/10/30 08:31:38;;;;;;;;;;;;;;;14.15;89.79;99332.14;131340;1289;22623;-81
2023/10/30 08:34:39;;;;;;;;;;;;;;;14.24;89.59;99341.27;131464;1289;25370;-80
2023/10/30 08:37:39;;;;;;;;;;;;;;;14.34;89.38;99339.85;131517;1297;22546;-80
2023/10/30 08:40:40;;;;;;;;;;;;;;;14.47;89.08;99339.73;131348;1298;22549;-80
2023/10/30 08:43:40;;;;;;;;;;;;;;;14.60;89.02;99343.64;131480;1282;22650;-79
2023/10/30 08:46:41;;;;;;;;;;;;;;;14.73;88.76;99348.40;131579;1289;25428;-80
2023/10/30 08:49:41;;;;;;;;;;;;;;;14.86;87.86;99347.92;131728;1298;22527;-80
2023/10/30 08:52:42;;;;;;;;;;;;;;;14.97;87.77;99344.17;131655;1288;22679;-80
2023/10/30 08:55:43;;;;;;;;;;;;;;;15.14;87.18;99339.87;131537;1293;25326;-80
2023/10/30 08:58:43;;;;;;;;;;;;;;;15.28;86.33;99346.97;131917;1288;25362;-80
2023/10/30 09:01:48;;;;;;;;;;;;;;;15.50;86.95;99346.73;131731;1288;22565;-81
2023/10/30 09:04:48;;;;;;;;;;;;;;;15.79;86.67;99349.13;132364;1293;22988;-80
2023/10/30 09:07:49;;;;;;;;;;;;;;;16.04;85.01;99348.73;131830;1284;22563;-80
2023/10/30 09:10:49;;;;;;;;;;;;;;;16.17;84.32;99342.01;131751;1288;23889;-80
2023/10/30 09:13:50;;;;;;;;;;;;;;;16.35;84.24;99344.45;131763;1289;22549;-80
2023/10/30 09:16:51;;;;;;;;;;;;;;;16.57;84.01;99343.16;131811;1288;26909;-83
2023/10/30 09:19:52;;;;;;;;;;;;;;;16.82;83.67;99346.26;131764;1288;22556;-80
2023/10/30 09:22:52;;;;;;;;;;;;;;;17.13;82.92;99346.27;131857;1285;25233;-80
2023/10/30 09:25:53;;;;;;;;;;;;;;;17.38;82.13;99343.16;131940;1288;22547;-80
2023/10/30 09:28:54;;;;;;;;;;;;;;;17.65;81.05;99343.56;131625;1291;22798;-79
2023/10/30 09:31:56;;;;;;;;;;;;;;;17.92;80.61;99342.06;131631;1294;22562;-79
2023/10/30 09:35:00;;;;;;;;;;;;;;;18.25;79.96;99346.40;131591;1288;22570;-81
2023/10/30 09:38:00;;;;;;;;;;;;;;;18.58;79.03;99344.45;131658;1288;22532;-80
2023/10/30 09:41:04;;;;;;;;;;;;;;;18.84;77.09;99333.31;131270;1288;22558;-82
2023/10/30 09:44:08;;;;;;;;;;;;;;;19.02;76.65;99328.86;131294;1288;22718;-80
2023/10/30 09:47:08;;;;;;;;;;;;;;;19.23;75.98;99323.66;131304;1293;24370;-79
2023/10/30 09:50:09;;;;;;;;;;;;;;;19.46;75.37;99321.19;131245;1297;22550;-81
2023/10/30 09:53:11;;;;;;;;;;;;;;;19.62;74.43;99312.42;131386;1294;22554;-80
2023/10/30 09:56:13;;;;;;;;;;;;;;;19.72;73.48;99305.71;131311;1292;22556;-80
2023/10/30 09:59:16;;;;;;;;;;;;;;;19.82;72.12;99304.34;131266;1288;22760;-80
2023/10/30 10:02:16;;;;;;;;;;;;;;;19.96;71.82;99309.17;131257;1289;23116;-79
2023/10/30 10:05:18;;;;;;;;;;;;;;;20.06;70.56;99313.39;131136;1290;22565;-80
2023/10/30 10:08:18;;;;;;;;;;;;;;;20.13;70.49;99304.77;131739;1296;23008;-79
2023/10/30 10:11:22;;;;;;;;;;;;;;;20.25;69.85;99315.44;131343;1298;25302;-80
2023/10/30 10:14:22;;;;;;;;;;;;;;;20.28;68.40;99316.33;131267;1294;22944;-80
2023/10/30 10:17:23;;;;;;;;;;;;;;;20.29;68.75;99316.52;131307;1297;22525;-81
2023/10/30 10:20:24;;;;;;;;;;;;;;;20.39;68.24;99311.24;131247;1290;22582;-79
2023/10/30 10:23:25;;;;;;;;;;;;;;;20.40;67.52;99316.37;131301;1290;23359;-82
2023/10/30 10:26:29;;;;;;;;;;;;;;;20.42;66.97;99316.78;131127;1298;22562;-81
2023/10/30 10:29:31;;;;;;;;;;;;;;;20.37;66.34;99314.56;131087;1298;26506;-81
2023/10/30 10:32:32;;;;;;;;;;;;;;;20.37;66.47;99315.48;131238;1291;22581;-81
2023/10/30 10:35:35;;;;;;;;;;;;;;;20.38;66.43;99307.52;131311;1297;22574;-82
2023/10/30 10:38:35;;;;;;;;;;;;;;;20.39;65.95;99298.42;131277;1293;24309;-82
2023/10/30 10:41:37;;;;;;;;;;;;;;;20.44;66.30;99292.83;131623;1297;22549;-82
2023/10/30 10:44:38;;;;;;;;;;;;;;;20.48;65.19;99287.85;131284;1290;22585;-81
2023/10/30 10:47:38;;;;;;;;;;;;;;;20.50;65.51;99284.02;131303;1290;23263;-80
2023/10/30 10:50:40;;;;;;;;;;;;;;;20.54;65.35;99282.58;131362;1291;22543;-80
2023/10/30 10:53:42;;;;;;;;;;;;;;;20.58;65.17;99276.85;131416;1297;24287;-80
2023/10/30 10:56:45;;;;;;;;;;;;;;;20.66;64.74;99274.63;131518;1296;22626;-81
2023/10/30 10:59:47;;;;;;;;;;;;;;;20.68;64.40;99275.07;131479;1294;22580;-81
2023/10/30 11:02:50;;;;;;;;;;;;;;;20.69;63.58;99273.78;131229;1298;22582;-80
2023/10/30 11:05:50;;;;;;;;;;;;;;;20.60;62.68;99268.30;131372;1296;23917;-80
2023/10/30 11:08:55;;;;;;;;;;;;;;;20.51;62.51;99267.42;131420;1297;22552;-82
2023/10/30 11:12:01;;;;;;;;;;;;;;;20.44;62.95;99265.01;131337;1290;24286;-80
2023/10/30 11:15:20;;;;;;;;;;;;;;;20.50;62.78;99267.67;131565;1296;22733;-82
2023/10/30 11:18:23;;;;;;;;;;;;;;;20.49;62.87;99268.91;131403;1289;22564;-80
2023/10/30 11:21:27;;;;;;;;;;;;;;;20.57;62.12;99268.60;131866;1292;22569;-81
2023/10/30 11:24:36;;;;;;;;;;;;;;;20.54;62.10;99262.70;131276;1288;23345;-80
2023/10/30 11:27:37;;;;;;;;;;;;;;;20.55;62.21;99256.77;131309;1292;22579;-81
2023/10/30 11:30:48;;;;;;;;;;;;;;;20.61;61.41;99253.70;131191;1292;22578;-81
2023/10/30 11:33:49;;;;;;;;;;;;;;;20.58;60.61;99255.18;131291;1298;22565;-81
2023/10/30 11:36:50;;;;;;;;;;;;;;;20.49;60.56;99248.16;131861;1288;22579;-80
2023/10/30 11:39:53;;;;;;;;;;;;;;;20.35;59.40;99244.39;131437;1289;25327;-81
2023/10/30 11:42:57;;;;;;;;;;;;;;;20.28;60.75;99251.15;131478;1294;25297;-81
2023/10/30 11:46:01;;;;;;;;;;;;;;;20.32;60.52;99247.73;131381;1294;25555;-82
2023/10/30 11:49:02;;;;;;;;;;;;;;;20.28;59.55;99251.48;131753;1291;22537;-81
2023/10/30 11:52:09;;;;;;;;;;;;;;;20.21;60.38;99250.42;131479;1291;22566;-81
2023/10/30 11:55:10;;;;;;;;;;;;;;;20.25;60.83;99252.52;132356;1297;22556;-80
2023/10/30 11:58:11;;;;;;;;;;;;;;;20.30;60.85;99246.97;131409;1288;25329;-80
2023/10/30 12:01:12;;;;;;;;;;;;;;;20.35;60.90;99245.14;131404;1294;23230;-81
2023/10/30 12:04:19;;;;;;;;;;;;;;;20.35;61.00;99239.91;131483;1294;24552;-81
2023/10/30 12:07:19;;;;;;;;;;;;;;;20.38;60.71;99242.16;131448;1297;22635;-81
2023/10/30 12:10:20;;;;;;;;;;;;;;;20.36;60.61;99238.38;131335;1297;22545;-81
2023/10/30 12:13:20;;;;;;;;;;;;;;;20.29;59.37;99236.23;131433;1294;23031;-80
2023/10/30 12:16:21;;;;;;;;;;;;;;;20.13;59.27;99229.10;131168;1289;25539;-81
2023/10/30 12:19:21;;;;;;;;;;;;;;;20.02;58.42;99225.80;131376;1292;22578;-81
2023/10/30 12:22:22;;;;;;;;;;;;;;;19.87;58.61;99224.19;131342;1297;22726;-80
2023/10/30 12:25:22;;;;;;;;;;;;;;;19.78;58.59;99214.98;131569;1288;22569;-80
2023/10/30 12:28:33;;;;;;;;;;;;;;;19.79;59.11;99208.30;131385;1292;22563;-82
2023/10/30 12:31:35;;;;;;;;;;;;;;;19.80;59.40;99206.49;131419;1291;22532;-81
2023/10/30 12:34:36;;;;;;;;;;;;;;;19.78;59.04;99210.39;131419;1294;22574;-81
2023/10/30 12:37:39;;;;;;;;;;;;;;;19.69;59.05;99204.05;131499;1289;25084;-81
2023/10/30 12:40:42;;;;;;;;;;;;;;;19.62;59.14;99206.77;131733;1294;23336;-80
2023/10/30 12:43:44;;;;;;;;;;;;;;;19.58;59.10;99208.60;131316;1298;24327;-83
2023/10/30 12:46:45;;;;;;;;;;;;;;;19.49;58.60;99212.29;131461;1297;24330;-83
2023/10/30 12:49:45;;;;;;;;;;;;;;;19.41;58.54;99212.34;131600;1288;22601;-82
2023/10/30 12:52:46;;;;;;;;;;;;;;;19.30;58.16;99207.33;131663;1288;25224;-82
2023/10/30 12:55:46;;;;;;;;;;;;;;;19.16;58.59;99209.65;131195;1294;25377;-83
2023/10/30 12:58:46;;;;;;;;;;;;;;;19.09;59.04;99209.36;131676;1289;22728;-82
2023/10/30 13:01:47;;;;;;;;;;;;;;;19.05;58.46;99205.91;131538;1296;22687;-82
2023/10/30 13:04:48;;;;;;;;;;;;;;;18.98;58.90;99206.12;131548;1297;22583;-82
2023/10/30 13:07:48;;;;;;;;;;;;;;;18.97;59.47;99204.50;131504;1284;23269;-83
2023/10/30 13:10:48;;;;;;;;;;;;;;;19.00;59.69;99197.98;131355;1292;22637;-81
2023/10/30 13:13:49;;;;;;;;;;;;;;;19.00;59.87;99200.13;131379;1294;22547;-81
2023/10/30 13:16:49;;;;;;;;;;;;;;;18.99;60.00;99202.86;131297;1285;22544;-82
2023/10/30 13:19:50;;;;;;;;;;;;;;;18.97;59.79;99202.46;131479;1293;22572;-82
2023/10/30 13:22:51;;;;;;;;;;;;;;;18.91;59.81;99198.42;131860;1288;23906;-84
2023/10/30 13:25:51;;;;;;;;;;;;;;;18.88;60.45;99191.92;131481;1293;23012;-83
2023/10/30 13:28:52;;;;;;;;;;;;;;;18.85;60.46;99187.42;131739;1298;22544;-83
2023/10/30 13:31:53;;;;;;;;;;;;;;;18.79;60.49;99191.52;131595;1288;23083;-81
2023/10/30 13:34:53;;;;;;;;;;;;;;;18.73;60.58;99197.84;131382;1297;24245;-80
2023/10/30 13:37:54;;;;;;;;;;;;;;;18.65;60.66;99197.24;131442;1291;22629;-82
2023/10/30 13:40:55;;;;;;;;;;;;;;;18.63;61.14;99197.70;131336;1294;22562;-83
2023/10/30 13:43:56;;;;;;;;;;;;;;;18.62;61.70;99190.75;131459;1288;22565;-82
2023/10/30 13:46:56;;;;;;;;;;;;;;;18.55;61.72;99183.04;131389;1289;25265;-82
2023/10/30 13:49:57;;;;;;;;;;;;;;;18.47;62.13;99176.02;131725;1298;23017;-83
2023/10/30 13:52:57;;;;;;;;;;;;;;;18.47;62.59;99173.02;131416;1297;22632;-82
2023/10/30 13:55:58;;;;;;;;;;;;;;;18.46;62.98;99171.60;131686;1293;22695;-81
2023/10/30 13:59:01;;;;;;;;;;;;;;;18.44;63.23;99170.71;131607;1291;22575;-81
2023/10/30 14:02:02;;;;;;;;;;;;;;;18.43;63.33;99169.30;131343;1291;22699;-80
2023/10/30 14:05:03;;;;;;;;;;;;;;;18.41;63.43;99164.42;131675;1297;23802;-83
2023/10/30 14:08:03;;;;;;;;;;;;;;;18.37;63.62;99161.73;131553;1288;24294;-81
2023/10/30 14:11:04;;;;;;;;;;;;;;;18.30;63.91;99155.64;131905;1298;22629;-82
2023/10/30 14:14:04;;;;;;;;;;;;;;;18.21;64.15;99152.48;131687;1297;25736;-82
2023/10/30 14:17:05;;;;;;;;;;;;;;;18.11;64.38;99148.48;131677;1298;22565;-82
2023/10/30 14:20:05;;;;;;;;;;;;;;;18.04;64.71;99150.41;131440;1297;22613;-80
2023/10/30 14:23:06;;;;;;;;;;;;;;;17.96;65.11;99152.15;131597;1298;23452;-83
2023/10/30 14:26:06;;;;;;;;;;;;;;;17.85;65.19;99158.85;131624;1297;23340;-82
2023/10/30 14:29:07;;;;;;;;;;;;;;;17.76;65.58;99158.42;131546;1298;25328;-81
2023/10/30 14:32:07;;;;;;;;;;;;;;;17.62;65.81;99156.77;131429;1297;25411;-81
2023/10/30 14:35:08;;;;;;;;;;;;;;;17.44;66.02;99147.88;131620;1296;22619;-81
2023/10/30 14:38:08;;;;;;;;;;;;;;;17.28;66.18;99143.77;131488;1297;22569;-81
2023/10/30 14:41:09;;;;;;;;;;;;;;;17.18;66.36;99142.42;131607;1291;22543;-83
2023/10/30 14:44:09;;;;;;;;;;;;;;;17.06;66.72;99149.17;131620;1297;22866;-83
2023/10/30 14:47:10;;;;;;;;;;;;;;;16.97;67.12;99153.67;131610;1296;22636;-83
2023/10/30 14:50:10;;;;;;;;;;;;;;;16.90;67.50;99148.35;131613;1297;24423;-82
2023/10/30 14:53:10;;;;;;;;;;;;;;;16.84;67.84;99154.91;131430;1288;23403;-83
2023/10/30 14:56:11;;;;;;;;;;;;;;;16.74;68.11;99152.58;131467;1297;26624;-83
2023/10/30 14:59:12;;;;;;;;;;;;;;;16.64;68.48;99143.25;131367;1298;22530;-84
2023/10/30 15:02:12;;;;;;;;;;;;;;;16.52;68.78;99139.89;131560;1297;22530;-83
2023/10/30 15:05:13;;;;;;;;;;;;;;;16.40;69.09;99135.95;131400;1287;24078;-83
2023/10/30 15:08:13;;;;;;;;;;;;;;;16.19;69.56;99126.84;131550;1293;24281;-82
2023/10/30 15:11:14;;;;;;;;;;;;;;;16.03;70.02;99127.53;131419;1298;22558;-83
2023/10/30 15:14:14;;;;;;;;;;;;;;;15.87;70.38;99123.89;131726;1297;22530;-81
2023/10/30 15:17:15;;;;;;;;;;;;;;;15.72;70.74;99120.75;131590;1297;22572;-81
2023/10/30 15:20:15;;;;;;;;;;;;;;;15.63;71.12;99121.04;131630;1291;25518;-81
2023/10/30 15:23:16;;;;;;;;;;;;;;;15.50;71.54;99120.93;131516;1298;22813;-82
2023/10/30 15:26:16;;;;;;;;;;;;;;;15.33;72.08;99122.15;131541;1297;25361;-82
2023/10/30 15:29:19;;;;;;;;;;;;;;;15.23;72.60;99116.58;131479;1295;23203;-81
2023/10/30 15:32:20;;;;;;;;;;;;;;;15.14;72.94;99110.80;131539;1297;22573;-82